Time;durP1;ratioP1;P1;durP2;ratioP2;P2;SDS_P1;SDS_P2;PMS_P1;PMS_P2;Temp;Humidity;BMP_temperature;BMP_pressure;BME280_temperature;BME280_humidity;BME280_pressure;Samples;Min_cycle;Max_cycle;Signal;HPM_P1;HPM_P2
2022/10/22 00:01:14;;;;;;;2.00;1.40;;;15.50;96.50;;;;;;5043968;28;20575;-72
2022/10/22 00:03:43;;;;;;;1.67;1.03;;;15.50;96.40;;;;;;5027844;28;20793;-72
2022/10/22 00:06:11;;;;;;;1.23;1.13;;;15.40;96.30;;;;;;5027672;28;20476;-72
2022/10/22 00:08:39;;;;;;;1.57;1.40;;;15.50;96.40;;;;;;5027769;28;20467;-72
2022/10/22 00:11:10;;;;;;;2.13;1.30;;;15.50;96.50;;;;;;5027396;28;20514;-72
2022/10/22 00:13:38;;;;;;;1.83;1.20;;;15.50;96.40;;;;;;5044493;28;20436;-72
2022/10/22 00:16:09;;;;;;;1.73;1.20;;;15.50;96.40;;;;;;5027291;28;20464;-72
2022/10/22 00:18:37;;;;;;;2.47;1.20;;;15.50;96.40;;;;;;5043089;28;20474;-72
2022/10/22 00:21:07;;;;;;;1.53;1.43;;;15.50;96.40;;;;;;5027289;28;20491;-72
2022/10/22 00:23:35;;;;;;;3.03;1.50;;;15.40;96.50;;;;;;5026636;28;20815;-72
2022/10/22 00:26:04;;;;;;;3.73;1.40;;;15.50;96.30;;;;;;5027032;28;21006;-72
2022/10/22 00:28:32;;;;;;;1.80;1.10;;;15.50;96.40;;;;;;5028931;28;20989;-72
2022/10/22 00:31:20;;;;;;;1.43;1.30;;;15.50;96.00;;;;;;5047354;28;20466;-72
2022/10/22 00:34:07;;;;;;;3.27;1.47;;;15.50;96.10;;;;;;5042285;28;20487;-72
2022/10/22 00:36:55;;;;;;;2.83;1.00;;;15.50;96.10;;;;;;5042108;28;20736;-72
2022/10/22 00:39:25;;;;;;;1.20;1.10;;;15.50;96.20;;;;;;5045305;28;21012;-72
2022/10/22 00:41:55;;;;;;;3.47;1.37;;;15.50;96.30;;;;;;5047823;28;20438;-72
2022/10/22 00:45:15;;;;;;;1.30;1.20;;;15.50;96.20;;;;;;5047356;28;20482;-72
2022/10/22 00:47:50;;;;;;;2.30;1.23;;;15.50;96.20;;;;;;4989419;28;20559;-72
2022/10/22 00:50:23;;;;;;;1.07;0.90;;;15.50;96.10;;;;;;4989721;28;20936;-72
2022/10/22 00:52:51;;;;;;;2.03;1.20;;;15.50;96.10;;;;;;5021979;28;20471;-72
2022/10/22 00:55:21;;;;;;;2.03;1.53;;;15.50;96.40;;;;;;5042827;28;20459;-72
2022/10/22 00:57:50;;;;;;;2.80;1.27;;;15.50;96.20;;;;;;5042945;28;21025;-72
2022/10/22 01:00:19;;;;;;;1.13;1.03;;;15.50;96.30;;;;;;5046207;28;20478;-72
2022/10/22 01:02:49;;;;;;;3.27;1.40;;;15.50;96.20;;;;;;5040298;28;20431;-72
2022/10/22 01:05:18;;;;;;;1.90;1.23;;;15.50;96.40;;;;;;5046725;28;20465;-72
2022/10/22 01:07:51;;;;;;;1.83;1.10;;;15.50;96.30;;;;;;5043095;28;21413;-72
2022/10/22 01:10:34;;;;;;;2.03;1.23;;;15.40;96.40;;;;;;5042486;28;20463;-72
2022/10/22 01:13:16;;;;;;;1.37;1.23;;;15.50;96.40;;;;;;5040915;28;20984;-72
2022/10/22 01:15:52;;;;;;;2.03;1.30;;;15.50;96.40;;;;;;5046445;28;20473;-72
2022/10/22 01:18:25;;;;;;;1.20;1.00;;;15.40;96.40;;;;;;5045356;28;21092;-72
2022/10/22 01:21:11;;;;;;;2.13;1.30;;;15.40;96.10;;;;;;5046335;28;20546;-72
2022/10/22 01:24:06;;;;;;;5.00;1.40;;;15.50;96.30;;;;;;5043792;28;20905;-72
2022/10/22 01:26:49;;;;;;;2.27;1.30;;;15.40;96.00;;;;;;5044152;28;20549;-72
2022/10/22 01:29:22;;;;;;;1.37;1.10;;;15.40;96.10;;;;;;5047392;28;20494;-72
2022/10/22 01:31:56;;;;;;;1.63;1.20;;;15.40;95.90;;;;;;5046262;28;20487;-72
2022/10/22 01:34:27;;;;;;;1.97;1.00;;;15.40;95.90;;;;;;5029434;28;20461;-72
2022/10/22 01:36:57;;;;;;;1.30;1.20;;;15.40;96.00;;;;;;5046855;28;20435;-72
2022/10/22 01:39:27;;;;;;;1.10;1.00;;;15.40;95.60;;;;;;5045466;28;20469;-72
2022/10/22 01:41:55;;;;;;;3.07;1.00;;;15.40;95.60;;;;;;5046675;28;20435;-72
2022/10/22 01:44:27;;;;;;;2.40;1.03;;;15.40;95.80;;;;;;5080813;23;20466;-52
2022/10/22 01:47:10;;;;;;;1.67;0.80;;;15.40;95.50;;;;;;5065597;28;20439;-53
2022/10/22 01:50:04;;;;;;;1.33;1.20;;;15.40;95.30;;;;;;5051780;28;20445;-52
2022/10/22 01:52:44;;;;;;;1.40;1.20;;;15.40;95.20;;;;;;5057222;28;20446;-51
2022/10/22 01:55:25;;;;;;;1.20;0.87;;;15.40;95.10;;;;;;5052621;28;21054;-50
2022/10/22 01:58:04;;;;;;;1.80;0.93;;;15.40;95.10;;;;;;5077811;28;21058;-52
2022/10/22 02:00:38;;;;;;;1.17;0.97;;;15.40;95.30;;;;;;5067834;28;20489;-52
2022/10/22 02:03:12;;;;;;;3.83;1.10;;;15.40;95.20;;;;;;5061416;28;20443;-52
2022/10/22 02:05:46;;;;;;;1.67;1.00;;;15.40;95.40;;;;;;5083484;28;20556;-52
2022/10/22 02:08:19;;;;;;;1.30;1.20;;;15.40;95.30;;;;;;5063636;28;20450;-52
2022/10/22 02:10:49;;;;;;;1.83;1.30;;;15.40;95.40;;;;;;5066530;28;20527;-51
2022/10/22 02:13:23;;;;;;;2.40;1.23;;;15.40;95.40;;;;;;5062107;28;20423;-51
2022/10/22 02:15:53;;;;;;;1.00;0.90;;;15.40;95.30;;;;;;5060617;28;20569;-52
2022/10/22 02:18:24;;;;;;;1.57;1.47;;;15.40;95.20;;;;;;5063937;28;20541;-52
2022/10/22 02:20:53;;;;;;;1.43;1.03;;;15.40;95.10;;;;;;5076865;28;20470;-51
2022/10/22 02:23:22;;;;;;;0.80;0.80;;;15.40;95.00;;;;;;5063495;28;20443;-51
2022/10/22 02:25:59;;;;;;;1.10;1.10;;;15.40;94.90;;;;;;5060111;28;20868;-52
2022/10/22 02:28:36;;;;;;;2.53;1.03;;;15.40;94.90;;;;;;5067580;28;20949;-52
2022/10/22 02:31:10;;;;;;;1.00;0.90;;;15.40;94.80;;;;;;5067867;28;20636;-52
2022/10/22 02:33:43;;;;;;;0.90;0.70;;;15.40;94.70;;;;;;5087849;28;20759;-52
2022/10/22 02:36:12;;;;;;;1.10;0.80;;;15.40;95.20;;;;;;5071206;28;20466;-51
2022/10/22 02:38:41;;;;;;;1.33;1.10;;;15.40;94.60;;;;;;5069902;28;20442;-52
2022/10/22 02:41:10;;;;;;;0.80;0.80;;;15.40;94.60;;;;;;5070794;28;20519;-52
2022/10/22 02:43:43;;;;;;;1.23;1.13;;;15.40;94.50;;;;;;5071178;28;20504;-52
2022/10/22 02:46:13;;;;;;;0.90;0.80;;;15.40;94.50;;;;;;5067141;28;20487;-53
2022/10/22 02:48:42;;;;;;;0.83;0.83;;;15.40;94.40;;;;;;5062721;28;21006;-51
2022/10/22 02:51:10;;;;;;;2.00;1.60;;;15.40;94.40;;;;;;5070674;28;20507;-51
2022/10/22 02:53:39;;;;;;;1.20;1.10;;;15.40;94.40;;;;;;5066419;28;20500;-52
2022/10/22 02:56:08;;;;;;;1.30;1.20;;;15.40;94.40;;;;;;5064866;28;20486;-51
2022/10/22 02:58:36;;;;;;;2.27;1.30;;;15.40;94.60;;;;;;5068821;28;20828;-52
2022/10/22 03:01:05;;;;;;;1.67;1.40;;;15.40;94.60;;;;;;5069743;28;20822;-52
2022/10/22 03:03:35;;;;;;;1.60;1.20;;;15.40;94.70;;;;;;5069756;28;20442;-52
2022/10/22 03:06:04;;;;;;;1.20;1.10;;;15.40;94.60;;;;;;5063330;28;20864;-52
2022/10/22 03:08:32;;;;;;;1.60;1.50;;;15.40;94.50;;;;;;5067817;28;20447;-51
2022/10/22 03:11:01;;;;;;;2.13;1.20;;;15.40;94.60;;;;;;5069807;28;20470;-52
2022/10/22 03:13:29;;;;;;;2.97;1.50;;;15.40;94.60;;;;;;5070642;28;20529;-52
2022/10/22 03:15:58;;;;;;;1.17;1.07;;;15.40;95.00;;;;;;5069858;28;20845;-51
2022/10/22 03:18:26;;;;;;;2.37;1.20;;;15.40;94.60;;;;;;5066263;28;20955;-52
2022/10/22 03:21:05;;;;;;;1.60;1.40;;;15.40;94.40;;;;;;5070048;28;20454;-51
2022/10/22 03:23:35;;;;;;;1.30;1.13;;;15.40;94.80;;;;;;5067967;28;20439;-52
2022/10/22 03:26:05;;;;;;;1.00;0.90;;;15.40;94.60;;;;;;5069857;28;20531;-52
2022/10/22 03:28:36;;;;;;;1.63;1.53;;;15.40;95.00;;;;;;5070682;28;20434;-52
2022/10/22 03:31:04;;;;;;;1.93;1.77;;;15.40;94.70;;;;;;5069862;28;21015;-52
2022/10/22 03:33:33;;;;;;;1.40;1.10;;;15.40;95.00;;;;;;5069566;28;20442;-52
2022/10/22 03:36:03;;;;;;;1.60;1.03;;;15.40;94.80;;;;;;5071289;28;20459;-51
2022/10/22 03:38:31;;;;;;;1.10;1.00;;;15.40;94.70;;;;;;5066705;28;20446;-52
2022/10/22 03:41:00;;;;;;;1.63;1.20;;;15.40;94.40;;;;;;5069878;28;20556;-52
2022/10/22 03:43:28;;;;;;;2.30;1.50;;;15.40;94.30;;;;;;5070511;28;20937;-52
2022/10/22 03:45:57;;;;;;;1.53;1.30;;;15.40;94.60;;;;;;5067660;28;20977;-52
2022/10/22 03:48:25;;;;;;;1.53;0.70;;;15.30;94.30;;;;;;5070293;28;21010;-51
2022/10/22 03:50:54;;;;;;;1.50;1.40;;;15.30;94.20;;;;;;5069413;28;20474;-52
2022/10/22 03:53:24;;;;;;;1.40;1.30;;;15.40;94.40;;;;;;5065527;28;20450;-52
2022/10/22 03:55:52;;;;;;;1.33;1.07;;;15.30;94.50;;;;;;5062378;28;20821;-52
2022/10/22 03:58:21;;;;;;;5.80;1.60;;;15.40;94.40;;;;;;5070265;28;20481;-51
2022/10/22 04:00:49;;;;;;;1.23;1.13;;;15.30;94.60;;;;;;5069235;28;20511;-52
2022/10/22 04:03:18;;;;;;;1.70;1.60;;;15.30;94.50;;;;;;5069438;28;20469;-51
2022/10/22 04:05:46;;;;;;;1.07;0.90;;;15.30;94.70;;;;;;5052866;28;20860;-52
2022/10/22 04:08:15;;;;;;;1.90;1.50;;;15.30;94.40;;;;;;5065036;28;20517;-52
2022/10/22 04:10:51;;;;;;;1.10;0.97;;;15.40;94.90;;;;;;5067874;28;20466;-52
2022/10/22 04:13:20;;;;;;;1.80;1.60;;;15.30;94.60;;;;;;5069233;28;20445;-51
2022/10/22 04:15:48;;;;;;;2.13;1.13;;;15.30;94.80;;;;;;5076907;28;20481;-52
2022/10/22 04:18:16;;;;;;;6.30;2.13;;;15.30;94.80;;;;;;5074190;28;20732;-52
2022/10/22 04:20:45;;;;;;;3.43;1.70;;;15.30;94.80;;;;;;5068190;28;20485;-51
2022/10/22 04:23:14;;;;;;;1.10;0.90;;;15.30;94.70;;;;;;5064984;28;20447;-53
2022/10/22 04:25:44;;;;;;;1.93;1.20;;;15.30;94.60;;;;;;5067523;28;20482;-52
2022/10/22 04:28:12;;;;;;;1.27;1.17;;;15.30;94.90;;;;;;5066605;28;20443;-52
2022/10/22 04:30:41;;;;;;;1.47;1.20;;;15.30;94.80;;;;;;5069101;28;20505;-52
2022/10/22 04:33:09;;;;;;;1.20;1.10;;;15.30;94.80;;;;;;5067893;28;20826;-53
2022/10/22 04:35:39;;;;;;;3.47;1.50;;;15.30;94.90;;;;;;5068299;28;20473;-52
2022/10/22 04:38:08;;;;;;;2.00;1.20;;;15.30;94.70;;;;;;5067017;28;20439;-53
2022/10/22 04:40:36;;;;;;;1.67;1.20;;;15.30;94.90;;;;;;5068738;28;20812;-51
2022/10/22 04:43:06;;;;;;;1.47;1.37;;;15.30;94.90;;;;;;5068903;28;20446;-52
2022/10/22 04:45:35;;;;;;;3.43;1.10;;;15.30;94.90;;;;;;5068585;28;20552;-52
2022/10/22 04:48:03;;;;;;;1.70;1.27;;;15.30;94.90;;;;;;5068269;28;20852;-52
2022/10/22 04:50:32;;;;;;;2.10;1.07;;;15.30;94.80;;;;;;5068240;28;20468;-52
2022/10/22 04:53:00;;;;;;;1.37;1.20;;;15.30;94.70;;;;;;5067349;28;20532;-51
2022/10/22 04:55:29;;;;;;;1.27;1.13;;;15.30;94.60;;;;;;5068085;28;20881;-52
2022/10/22 04:57:57;;;;;;;1.83;1.53;;;15.30;94.50;;;;;;5068446;28;20467;-52
2022/10/22 05:00:28;;;;;;;1.20;1.10;;;15.30;94.40;;;;;;5067861;28;20972;-51
2022/10/22 05:02:56;;;;;;;0.90;0.80;;;15.30;94.50;;;;;;5082005;28;20474;-52
2022/10/22 05:05:25;;;;;;;1.80;1.70;;;15.30;94.20;;;;;;5064350;28;20561;-52
2022/10/22 05:07:53;;;;;;;1.20;1.00;;;15.30;94.10;;;;;;5064345;28;20439;-52
2022/10/22 05:10:21;;;;;;;1.30;1.20;;;15.30;94.10;;;;;;5061227;28;20818;-52
2022/10/22 05:12:50;;;;;;;1.77;1.00;;;15.30;94.30;;;;;;5061127;28;20543;-52
2022/10/22 05:15:18;;;;;;;1.03;1.00;;;15.30;94.20;;;;;;5066607;28;20535;-51
2022/10/22 05:17:48;;;;;;;1.30;0.90;;;15.30;94.30;;;;;;5068946;28;20423;-53
2022/10/22 05:20:17;;;;;;;3.00;1.00;;;15.30;94.20;;;;;;5067873;28;20466;-52
2022/10/22 05:22:45;;;;;;;2.97;1.07;;;15.30;94.30;;;;;;5067068;28;20941;-53
2022/10/22 05:25:14;;;;;;;1.87;1.13;;;15.30;94.00;;;;;;5067986;28;20489;-52
2022/10/22 05:27:42;;;;;;;1.03;0.97;;;15.30;94.10;;;;;;5068568;28;20527;-51
2022/10/22 05:30:12;;;;;;;1.50;1.30;;;15.30;94.20;;;;;;5060424;28;20441;-52
2022/10/22 05:32:40;;;;;;;1.97;1.20;;;15.30;94.20;;;;;;5067279;28;20504;-52
2022/10/22 05:35:10;;;;;;;1.20;1.10;;;15.30;94.10;;;;;;5067928;28;20470;-51
2022/10/22 05:37:39;;;;;;;0.90;0.80;;;15.30;94.00;;;;;;5067401;28;20799;-53
2022/10/22 05:40:09;;;;;;;1.47;1.20;;;15.30;94.00;;;;;;5068990;28;20533;-52
2022/10/22 05:42:54;;;;;;;1.70;1.23;;;15.30;94.00;;;;;;5061913;28;20438;-52
2022/10/22 05:45:22;;;;;;;0.93;0.80;;;15.30;94.10;;;;;;5083565;28;20505;-54
2022/10/22 05:47:51;;;;;;;2.13;1.33;;;15.30;94.00;;;;;;5068849;28;20446;-51
2022/10/22 05:50:21;;;;;;;1.40;1.20;;;15.30;94.00;;;;;;5067948;28;20458;-50
2022/10/22 05:52:49;;;;;;;1.80;1.07;;;15.20;93.90;;;;;;5075938;28;20461;-50
2022/10/22 05:55:18;;;;;;;1.30;1.20;;;15.30;93.80;;;;;;5066260;28;20990;-53
2022/10/22 05:57:48;;;;;;;2.00;1.47;;;15.30;93.90;;;;;;5068906;28;20497;-53
2022/10/22 06:00:17;;;;;;;2.23;1.17;;;15.30;93.80;;;;;;5061230;28;20467;-52
2022/10/22 06:02:49;;;;;;;2.67;1.10;;;15.30;93.80;;;;;;5068197;28;20480;-51
2022/10/22 06:05:18;;;;;;;0.80;0.80;;;15.30;93.80;;;;;;5068175;28;20465;-52
2022/10/22 06:07:48;;;;;;;1.17;0.90;;;15.30;93.80;;;;;;5070451;28;20700;-52
2022/10/22 06:10:19;;;;;;;1.47;0.90;;;15.30;93.70;;;;;;5071716;28;20461;-51
2022/10/22 06:12:48;;;;;;;1.23;1.00;;;15.30;93.70;;;;;;5073488;28;20458;-51
2022/10/22 06:15:19;;;;;;;1.60;0.70;;;15.30;93.80;;;;;;5087949;28;20944;-51
2022/10/22 06:17:47;;;;;;;1.17;0.90;;;15.30;93.60;;;;;;5070788;28;20454;-51
2022/10/22 06:20:16;;;;;;;3.03;0.90;;;15.20;93.50;;;;;;5070887;28;20972;-52
2022/10/22 06:22:47;;;;;;;1.00;0.90;;;15.30;93.70;;;;;;5061816;28;20473;-52
2022/10/22 06:25:17;;;;;;;0.90;0.90;;;15.30;93.70;;;;;;5070810;28;20508;-52
2022/10/22 06:27:50;;;;;;;1.50;1.40;;;15.20;93.70;;;;;;5062625;28;20471;-54
2022/10/22 06:30:19;;;;;;;2.17;1.93;;;15.20;93.70;;;;;;5072780;28;20822;-52
2022/10/22 06:32:47;;;;;;;5.20;1.40;;;15.20;93.80;;;;;;5087477;28;21072;-52
2022/10/22 06:35:16;;;;;;;2.10;1.20;;;15.20;93.80;;;;;;5066628;28;20982;-52
2022/10/22 06:37:46;;;;;;;2.10;1.17;;;15.20;93.90;;;;;;5070888;28;20488;-53
2022/10/22 06:40:17;;;;;;;2.07;1.20;;;15.20;93.80;;;;;;5072431;28;20828;-53
2022/10/22 06:42:46;;;;;;;2.37;1.30;;;15.20;93.90;;;;;;5068706;28;20436;-52
2022/10/22 06:45:14;;;;;;;5.00;1.43;;;15.20;93.80;;;;;;5070444;28;20987;-51
2022/10/22 06:47:43;;;;;;;1.60;1.47;;;15.20;93.80;;;;;;5068898;28;20450;-51
2022/10/22 06:50:11;;;;;;;1.50;1.13;;;15.20;93.90;;;;;;5071324;28;20550;-51
2022/10/22 06:52:40;;;;;;;0.93;0.83;;;15.20;93.70;;;;;;5069401;28;20605;-51
2022/10/22 06:55:10;;;;;;;1.23;0.80;;;15.20;93.60;;;;;;5070197;28;21036;-50
2022/10/22 06:57:40;;;;;;;1.33;1.23;;;15.20;93.90;;;;;;5062835;28;20446;-52
2022/10/22 07:00:10;;;;;;;1.10;0.70;;;15.20;94.00;;;;;;5064915;28;20501;-51
2022/10/22 07:02:39;;;;;;;1.90;1.00;;;15.20;93.80;;;;;;5070070;28;20965;-50
2022/10/22 07:05:09;;;;;;;1.20;1.10;;;15.20;93.80;;;;;;5070642;28;20961;-52
2022/10/22 07:07:38;;;;;;;1.20;0.90;;;15.20;93.70;;;;;;5069361;28;20474;-52
2022/10/22 07:10:08;;;;;;;1.43;1.00;;;15.20;93.60;;;;;;5070523;28;20840;-52
2022/10/22 07:12:37;;;;;;;1.13;0.90;;;15.20;93.50;;;;;;5067411;28;20437;-52
2022/10/22 07:15:08;;;;;;;1.47;1.03;;;15.20;93.50;;;;;;5069987;28;20516;-50
2022/10/22 07:17:37;;;;;;;1.23;1.10;;;15.20;93.70;;;;;;5067344;28;20434;-50
2022/10/22 07:20:08;;;;;;;2.50;1.30;;;15.20;93.70;;;;;;5070803;28;20474;-52
2022/10/22 07:22:37;;;;;;;1.77;1.10;;;15.20;93.70;;;;;;5069060;28;20430;-53
2022/10/22 07:25:06;;;;;;;6.43;1.50;;;15.20;93.80;;;;;;5073683;28;20849;-52
2022/10/22 07:27:35;;;;;;;1.13;0.90;;;15.20;93.60;;;;;;5070685;28;20532;-50
2022/10/22 07:30:04;;;;;;;1.27;1.17;;;15.20;93.70;;;;;;5071016;28;20442;-53
2022/10/22 07:32:34;;;;;;;1.00;0.90;;;15.20;93.70;;;;;;5068851;28;20949;-52
2022/10/22 07:35:03;;;;;;;1.27;1.10;;;15.20;93.50;;;;;;5070227;28;20446;-53
2022/10/22 07:37:31;;;;;;;2.10;1.03;;;15.20;93.60;;;;;;5069074;28;20525;-51
2022/10/22 07:40:01;;;;;;;1.20;1.00;;;15.20;93.50;;;;;;5070501;28;20805;-52
2022/10/22 07:42:32;;;;;;;1.47;1.23;;;15.20;93.80;;;;;;5070592;28;20559;-53
2022/10/22 07:45:00;;;;;;;0.80;0.80;;;15.20;93.70;;;;;;5088908;22;20474;-72
2022/10/22 07:47:29;;;;;;;2.30;1.10;;;15.20;93.30;;;;;;5059476;28;20495;-72
2022/10/22 07:49:58;;;;;;;1.03;0.80;;;15.20;93.40;;;;;;5028183;28;20483;-72
2022/10/22 07:52:27;;;;;;;1.10;0.90;;;15.20;93.20;;;;;;5022025;28;20439;-72
2022/10/22 07:54:56;;;;;;;1.20;1.07;;;15.20;93.20;;;;;;5024782;28;20868;-72
2022/10/22 07:57:24;;;;;;;1.13;0.80;;;15.20;93.10;;;;;;5026854;28;20444;-72
2022/10/22 07:59:52;;;;;;;2.47;0.73;;;15.20;93.10;;;;;;5027582;28;20428;-72
2022/10/22 08:02:21;;;;;;;0.80;0.70;;;15.20;93.20;;;;;;5025246;28;21100;-66
2022/10/22 08:04:49;;;;;;;2.00;1.00;;;15.20;93.00;;;;;;5036277;28;20533;-66
2022/10/22 08:07:19;;;;;;;2.40;0.90;;;15.20;92.90;;;;;;5044986;28;20424;-65
2022/10/22 08:09:47;;;;;;;1.77;0.90;;;15.20;92.90;;;;;;5019883;28;20818;-66
2022/10/22 08:12:15;;;;;;;0.80;0.80;;;15.20;93.10;;;;;;5040676;28;20428;-66
2022/10/22 08:14:44;;;;;;;0.73;0.73;;;15.20;92.90;;;;;;5025547;28;20507;-66
2022/10/22 08:17:12;;;;;;;1.67;1.00;;;15.20;92.90;;;;;;5042024;28;20448;-66
2022/10/22 08:19:40;;;;;;;2.50;0.80;;;15.20;92.90;;;;;;5026895;28;20446;-66
2022/10/22 08:22:09;;;;;;;1.37;1.00;;;15.20;93.00;;;;;;5037730;28;20534;-66
2022/10/22 08:24:39;;;;;;;0.83;0.70;;;15.20;92.90;;;;;;5038124;28;20478;-66
2022/10/22 08:27:07;;;;;;;1.10;0.97;;;15.20;92.90;;;;;;5028314;28;20467;-66
2022/10/22 08:29:36;;;;;;;2.13;1.27;;;15.20;92.80;;;;;;5026721;28;20436;-65
2022/10/22 08:32:04;;;;;;;2.20;1.00;;;15.20;92.90;;;;;;5023068;28;20819;-66
2022/10/22 08:34:33;;;;;;;1.27;0.87;;;15.20;92.90;;;;;;5026275;28;20491;-65
2022/10/22 08:37:01;;;;;;;1.10;0.90;;;15.20;92.90;;;;;;5027341;28;20439;-65
2022/10/22 08:39:29;;;;;;;1.57;1.10;;;15.20;92.90;;;;;;5033014;28;20974;-66
2022/10/22 08:42:14;;;;;;;1.30;1.20;;;15.20;92.80;;;;;;5023897;28;20460;-66
2022/10/22 08:44:59;;;;;;;1.30;1.00;;;15.20;92.80;;;;;;5042110;28;20463;-66
2022/10/22 08:47:44;;;;;;;1.37;0.80;;;15.20;92.90;;;;;;5025833;28;20982;-65
2022/10/22 08:50:17;;;;;;;1.23;0.90;;;15.20;93.00;;;;;;5027860;28;20983;-66
2022/10/22 08:52:51;;;;;;;1.30;1.10;;;15.20;92.90;;;;;;5027000;28;20452;-65
2022/10/22 08:55:21;;;;;;;2.10;1.40;;;15.20;92.90;;;;;;5026869;28;20471;-65
2022/10/22 08:57:59;;;;;;;1.00;0.90;;;15.20;92.90;;;;;;5040892;28;20555;-66
2022/10/22 09:00:32;;;;;;;2.30;1.63;;;15.20;92.80;;;;;;5042214;28;20563;-65
2022/10/22 09:03:17;;;;;;;1.00;0.80;;;15.20;92.80;;;;;;5025639;28;20482;-65
2022/10/22 09:05:54;;;;;;;0.90;0.73;;;15.20;92.80;;;;;;5045592;28;20491;-66
2022/10/22 09:08:23;;;;;;;0.97;0.87;;;15.20;92.80;;;;;;5020238;28;20461;-65
2022/10/22 09:10:57;;;;;;;1.00;0.83;;;15.20;92.80;;;;;;5021668;28;20498;-65
2022/10/22 09:13:27;;;;;;;1.63;1.13;;;15.20;92.80;;;;;;5026955;28;20444;-65
2022/10/22 09:15:59;;;;;;;0.60;0.60;;;15.20;92.80;;;;;;5025977;28;20499;-65
2022/10/22 09:18:36;;;;;;;1.57;1.13;;;15.20;92.80;;;;;;5025330;28;20543;-65
2022/10/22 09:21:15;;;;;;;0.80;0.80;;;15.20;92.90;;;;;;5040507;28;20484;-65
2022/10/22 09:23:55;;;;;;;5.30;1.50;;;15.20;92.80;;;;;;5018529;28;20444;-65
2022/10/22 09:26:25;;;;;;;1.80;0.90;;;15.20;93.70;;;;;;5021524;28;20530;-66
2022/10/22 09:28:54;;;;;;;3.10;0.80;;;15.20;93.40;;;;;;5023451;28;20464;-65
2022/10/22 09:31:23;;;;;;;1.80;1.47;;;15.20;93.10;;;;;;5021374;28;20974;-65
2022/10/22 09:33:51;;;;;;;2.73;0.90;;;15.20;93.00;;;;;;5026622;28;20428;-65
2022/10/22 09:36:22;;;;;;;4.20;1.60;;;15.20;93.30;;;;;;5027200;28;21009;-65
2022/10/22 09:38:53;;;;;;;1.93;0.93;;;15.20;93.30;;;;;;5031507;28;20502;-64
2022/10/22 09:41:25;;;;;;;2.10;0.93;;;15.20;93.40;;;;;;5030769;28;21011;-65
2022/10/22 09:43:55;;;;;;;0.80;0.80;;;15.20;93.40;;;;;;5041891;28;21003;-65
2022/10/22 09:46:27;;;;;;;1.17;0.83;;;15.30;93.30;;;;;;5037707;28;20875;-65
2022/10/22 09:49:03;;;;;;;2.00;1.30;;;15.20;93.10;;;;;;5041190;28;20496;-65
2022/10/22 09:51:48;;;;;;;1.67;0.90;;;15.20;93.30;;;;;;5043125;28;20498;-65
2022/10/22 09:54:19;;;;;;;4.57;1.13;;;15.20;93.20;;;;;;5025485;28;20460;-65
2022/10/22 09:56:52;;;;;;;0.93;0.93;;;15.20;93.20;;;;;;5030144;28;20440;-65
2022/10/22 09:59:34;;;;;;;1.70;1.10;;;15.20;93.30;;;;;;5037022;28;21009;-64
2022/10/22 10:02:15;;;;;;;1.70;1.10;;;15.20;93.30;;;;;;5035914;28;20451;-73
2022/10/22 10:04:55;;;;;;;1.70;1.27;;;15.30;93.70;;;;;;5040385;28;20448;-73
2022/10/22 10:07:27;;;;;;;4.93;1.80;;;15.30;93.40;;;;;;5029800;28;20456;-73
2022/10/22 10:09:55;;;;;;;1.83;1.50;;;15.30;93.30;;;;;;5038155;28;20467;-72
2022/10/22 11:25:45;;;;;;;1.63;1.27;;;15.10;93.20;;;;;;5143162;27;20543;-47
2022/10/22 11:28:20;;;;;;;2.30;0.70;;;15.10;93.60;;;;;;5102762;28;20438;-48
2022/10/22 11:30:56;;;;;;;4.20;1.53;;;15.10;93.50;;;;;;5128226;27;20461;-48
2022/10/22 11:33:33;;;;;;;1.93;1.17;;;15.20;93.50;;;;;;5096734;28;20485;-48
2022/10/22 11:36:43;;;;;;;1.07;0.87;;;15.10;93.40;;;;;;5113946;27;20476;-47
2022/10/22 11:39:58;;;;;;;3.60;1.10;;;15.20;93.40;;;;;;5125110;28;20458;-47
2022/10/22 11:43:00;;;;;;;1.67;0.87;;;15.20;93.50;;;;;;5119391;28;20490;-48
2022/10/22 11:46:49;;;;;;;3.40;0.90;;;15.20;93.30;;;;;;5049817;28;20461;-49
2022/10/22 11:49:53;;;;;;;1.27;0.67;;;15.20;93.30;;;;;;5081174;28;20446;-48
2022/10/22 11:52:41;;;;;;;1.07;0.80;;;15.20;93.30;;;;;;5080908;28;20826;-48
2022/10/22 11:55:54;;;;;;;1.33;0.70;;;15.20;93.20;;;;;;5068689;28;20458;-48
2022/10/22 11:59:14;;;;;;;1.00;0.83;;;15.20;93.20;;;;;;5080386;28;21043;-48
2022/10/22 12:02:08;;;;;;;1.13;0.80;;;15.20;93.10;;;;;;5071727;28;21035;-48
2022/10/22 12:05:46;;;;;;;2.00;0.80;;;15.20;93.10;;;;;;5064313;28;20433;-48
2022/10/22 12:09:00;;;;;;;1.40;0.70;;;15.20;93.40;;;;;;5081321;28;20441;-48
2022/10/22 12:11:47;;;;;;;1.80;1.00;;;15.20;93.20;;;;;;5082354;28;20918;-49
2022/10/22 12:14:25;;;;;;;1.20;0.90;;;15.20;93.10;;;;;;5085889;28;20469;-48
2022/10/22 12:16:58;;;;;;;1.87;0.90;;;15.20;93.10;;;;;;5082809;28;20490;-48
2022/10/22 15:52:16;;;;;;;5.07;1.70;;;15.40;96.30;;;;;;5115958;27;20682;-50
2022/10/22 15:54:45;;;;;;;2.60;1.07;;;15.40;96.30;;;;;;5102703;28;20432;-50
2022/10/22 15:57:17;;;;;;;3.20;1.60;;;15.40;96.30;;;;;;5103360;28;20935;-48
2022/10/22 15:59:46;;;;;;;3.07;1.23;;;15.40;96.30;;;;;;5086309;27;20524;-50
2022/10/22 16:02:15;;;;;;;2.77;1.07;;;15.40;96.20;;;;;;5062822;28;20620;-50
2022/10/22 16:04:43;;;;;;;2.73;1.10;;;15.40;96.30;;;;;;5064769;28;20449;-50
2022/10/22 16:07:12;;;;;;;5.53;1.53;;;15.40;96.00;;;;;;5064899;28;20426;-47
2022/10/22 16:09:42;;;;;;;2.27;0.87;;;15.40;95.90;;;;;;5070255;28;20885;-50
2022/10/22 16:12:11;;;;;;;2.50;1.47;;;15.40;96.00;;;;;;5061124;28;20565;-48
2022/10/22 16:14:43;;;;;;;4.03;1.40;;;15.40;95.80;;;;;;5064733;28;20449;-49
2022/10/22 16:17:12;;;;;;;3.03;1.27;;;15.40;95.70;;;;;;5062979;28;20936;-48
2022/10/22 16:19:41;;;;;;;4.07;1.17;;;15.40;95.60;;;;;;5061570;28;20585;-49
2022/10/22 16:22:12;;;;;;;3.90;1.10;;;15.40;95.50;;;;;;5061214;28;20473;-49
2022/10/22 16:24:42;;;;;;;2.60;1.17;;;15.40;95.40;;;;;;5071913;28;20470;-48
2022/10/22 16:27:11;;;;;;;1.97;1.20;;;15.40;95.30;;;;;;5063251;28;20446;-49
2022/10/22 16:29:40;;;;;;;1.23;0.83;;;15.40;95.30;;;;;;5071106;28;20447;-50
2022/10/22 16:32:09;;;;;;;5.53;1.00;;;15.40;95.30;;;;;;5066830;28;20481;-49
2022/10/22 16:34:37;;;;;;;2.23;1.43;;;15.40;95.20;;;;;;5067686;28;20871;-50
2022/10/22 16:37:08;;;;;;;3.23;1.40;;;15.40;95.20;;;;;;5083250;28;21051;-50
2022/10/22 16:39:37;;;;;;;3.80;1.60;;;15.40;95.10;;;;;;5065348;28;20525;-49
2022/10/22 16:42:07;;;;;;;2.73;1.40;;;15.40;94.90;;;;;;5065974;28;20474;-50
2022/10/22 16:44:36;;;;;;;4.07;2.80;;;15.40;94.90;;;;;;5064791;28;20462;-48
2022/10/22 16:47:04;;;;;;;3.17;2.10;;;15.40;94.90;;;;;;5065246;28;20519;-51
2022/10/22 16:49:33;;;;;;;4.47;2.80;;;15.40;94.90;;;;;;5065938;28;20438;-49
2022/10/22 16:52:02;;;;;;;3.33;2.57;;;15.40;94.90;;;;;;5065587;28;20473;-50
2022/10/22 16:54:31;;;;;;;4.50;2.77;;;15.40;95.00;;;;;;5064814;28;20423;-48
2022/10/22 16:57:00;;;;;;;4.00;2.93;;;15.40;94.90;;;;;;5066139;28;20423;-49
2022/10/22 16:59:30;;;;;;;4.17;2.63;;;15.40;95.00;;;;;;5064831;28;20469;-50
2022/10/22 17:01:58;;;;;;;6.00;3.37;;;15.40;95.00;;;;;;5060956;28;20463;-50
2022/10/22 17:04:27;;;;;;;3.60;2.90;;;15.40;95.00;;;;;;5052300;28;20921;-49
2022/10/22 17:06:56;;;;;;;8.70;3.23;;;15.40;95.00;;;;;;5052639;28;20435;-50
2022/10/22 17:09:24;;;;;;;3.63;2.77;;;15.40;95.10;;;;;;5051669;28;20444;-50
2022/10/22 17:11:53;;;;;;;3.60;2.63;;;15.40;95.00;;;;;;5052049;28;20485;-50
2022/10/22 17:14:22;;;;;;;6.20;2.57;;;15.40;95.00;;;;;;5052199;28;20446;-50
2022/10/22 17:16:52;;;;;;;3.73;3.00;;;15.40;95.50;;;;;;5051439;28;20454;-50
2022/10/22 17:19:22;;;;;;;3.00;2.50;;;15.40;95.00;;;;;;5052185;28;20934;-48
2022/10/22 17:21:52;;;;;;;5.20;3.40;;;15.40;95.00;;;;;;5050196;28;20458;-49
2022/10/22 17:24:20;;;;;;;7.43;3.00;;;15.40;95.20;;;;;;5048767;28;20439;-50
2022/10/22 17:26:51;;;;;;;3.90;3.30;;;15.50;95.50;;;;;;5062236;28;20961;-50
2022/10/22 17:29:20;;;;;;;6.83;3.30;;;15.50;95.60;;;;;;5050154;28;20450;-50
2022/10/22 17:31:49;;;;;;;5.70;3.40;;;15.50;95.60;;;;;;5047106;28;20471;-48
2022/10/22 17:34:19;;;;;;;4.27;3.33;;;15.50;95.60;;;;;;5050518;28;20975;-49
2022/10/22 17:36:47;;;;;;;3.80;2.23;;;15.50;95.50;;;;;;5051829;28;20444;-50
2022/10/22 17:39:18;;;;;;;4.80;2.73;;;15.50;95.50;;;;;;5059466;28;20825;-50
2022/10/22 17:41:46;;;;;;;2.77;2.30;;;15.60;95.50;;;;;;5050996;28;20454;-49
2022/10/22 17:44:15;;;;;;;3.30;2.63;;;15.50;95.30;;;;;;5049409;28;20443;-50
2022/10/22 17:46:44;;;;;;;4.57;2.60;;;15.60;95.30;;;;;;5049585;28;20953;-49
2022/10/22 17:49:17;;;;;;;4.27;2.53;;;15.60;95.20;;;;;;5050717;28;20439;-49
2022/10/22 17:51:47;;;;;;;2.60;2.40;;;15.60;95.20;;;;;;5043563;28;20467;-50
2022/10/22 17:54:16;;;;;;;3.47;2.33;;;15.60;95.30;;;;;;5048605;28;20526;-50
2022/10/22 17:56:44;;;;;;;3.90;2.30;;;15.70;95.20;;;;;;5050463;28;20435;-49
2022/10/22 17:59:14;;;;;;;3.70;2.50;;;15.70;95.20;;;;;;5059552;28;20482;-51
2022/10/22 18:01:44;;;;;;;2.60;2.00;;;15.70;95.10;;;;;;5041652;28;20551;-48